Time;durP1;ratioP1;P1;durP2;ratioP2;P2;SDS_P1;SDS_P2;PMS_P1;PMS_P2;Temp;Humidity;BMP_temperature;BMP_pressure;BME280_temperature;BME280_humidity;BME280_pressure;Samples;Min_cycle;Max_cycle;Signal;HPM_P1;HPM_P2
2023/10/04 00:01:21;;;;;;;;;;;;;;;;;;6351477;28;19907;-82
2023/10/04 00:04:21;;;;;;;;;;;;;;;;;;6351307;28;20296;-82
2023/10/04 00:07:22;;;;;;;;;;;;;;;;;;6333356;28;19908;-82
2023/10/04 00:10:22;;;;;;;;;;;;;;;;;;6332915;28;20286;-82
2023/10/04 00:13:22;;;;;;;;;;;;;;;;;;6351877;28;19908;-82
2023/10/04 00:16:22;;;;;;;;;;;;;;;;;;6333162;28;20250;-81
2023/10/04 00:19:22;;;;;;;;;;;;;;;;;;6351504;28;20015;-82
2023/10/04 00:22:23;;;;;;;;;;;;;;;;;;6351055;28;19908;-81
2023/10/04 00:25:23;;;;;;;;;;;;;;;;;;6350962;28;19908;-82
2023/10/04 00:28:23;;;;;;;;;;;;;;;;;;6332538;28;20297;-81
2023/10/04 00:31:25;;;;;;;;;;;;;;;;;;6350814;28;20017;-81
2023/10/04 00:34:25;;;;;;;;;;;;;;;;;;6350737;28;19962;-82
2023/10/04 00:37:26;;;;;;;;;;;;;;;;;;6350545;28;20267;-82
2023/10/04 00:40:27;;;;;;;;;;;;;;;;;;6350717;28;19996;-82
2023/10/04 00:43:27;;;;;;;;;;;;;;;;;;6350382;28;19915;-81
2023/10/04 00:46:33;;;;;;;;;;;;;;;;;;6351051;28;19908;-81
2023/10/04 00:49:33;;;;;;;;;;;;;;;;;;6350628;28;20374;-82
2023/10/04 00:52:33;;;;;;;;;;;;;;;;;;6349582;28;19961;-81
2023/10/04 00:55:39;;;;;;;;;;;;;;;;;;6350040;28;19927;-81
2023/10/04 00:58:39;;;;;;;;;;;;;;;;;;6332915;28;19922;-81
2023/10/04 01:01:40;;;;;;;;;;;;;;;;;;6350970;28;19912;-81
2023/10/04 01:04:40;;;;;;;;;;;;;;;;;;6349853;28;19996;-80
2023/10/04 01:07:41;;;;;;;;;;;;;;;;;;6350610;28;19919;-81
2023/10/04 01:10:43;;;;;;;;;;;;;;;;;;6350148;28;19960;-81
2023/10/04 01:13:43;;;;;;;;;;;;;;;;;;6350022;28;19908;-80
2023/10/04 01:16:44;;;;;;;;;;;;;;;;;;6349542;28;19944;-80
2023/10/04 01:19:44;;;;;;;;;;;;;;;;;;6350025;28;19931;-80
2023/10/04 01:22:44;;;;;;;;;;;;;;;;;;6331081;28;19939;-80
2023/10/04 01:25:46;;;;;;;;;;;;;;;;;;6349727;28;19908;-80
2023/10/04 01:28:46;;;;;;;;;;;;;;;;;;6349411;28;19942;-80
2023/10/04 01:31:46;;;;;;;;;;;;;;;;;;6331179;28;20309;-81
2023/10/04 01:34:46;;;;;;;;;;;;;;;;;;6331925;28;19908;-80
2023/10/04 01:37:46;;;;;;;;;;;;;;;;;;6349029;28;19911;-80
2023/10/04 01:40:47;;;;;;;;;;;;;;;;;;6349064;28;20263;-81
2023/10/04 01:43:49;;;;;;;;;;;;;;;;;;6330713;28;19915;-80
2023/10/04 01:46:49;;;;;;;;;;;;;;;;;;6349298;28;19908;-80
2023/10/04 01:49:49;;;;;;;;;;;;;;;;;;6348820;28;19908;-80
2023/10/04 01:52:50;;;;;;;;;;;;;;;;;;6330825;28;20333;-80
2023/10/04 01:55:50;;;;;;;;;;;;;;;;;;6348563;28;19930;-81
2023/10/04 01:58:51;;;;;;;;;;;;;;;;;;6348442;28;19916;-80
2023/10/04 02:01:51;;;;;;;;;;;;;;;;;;6348480;28;20417;-80
2023/10/04 02:04:53;;;;;;;;;;;;;;;;;;6348462;28;19908;-80
2023/10/04 02:07:53;;;;;;;;;;;;;;;;;;6348519;28;19908;-80
2023/10/04 02:10:54;;;;;;;;;;;;;;;;;;6349020;28;19958;-80
2023/10/04 02:13:55;;;;;;;;;;;;;;;;;;6330194;28;19950;-79
2023/10/04 02:16:55;;;;;;;;;;;;;;;;;;6348575;28;19931;-87
2023/10/04 02:19:55;;;;;;;;;;;;;;;;;;6348337;28;19914;-87
2023/10/04 02:22:56;;;;;;;;;;;;;;;;;;6348207;28;19951;-86
2023/10/04 02:25:56;;;;;;;;;;;;;;;;;;6329918;28;19908;-86
2023/10/04 02:28:57;;;;;;;;;;;;;;;;;;6348142;28;19914;-87
2023/10/04 02:31:57;;;;;;;;;;;;;;;;;;6329854;28;19908;-86
2023/10/04 02:34:57;;;;;;;;;;;;;;;;;;6330051;28;19915;-87
2023/10/04 02:38:00;;;;;;;;;;;;;;;;;;6347956;28;19923;-87
2023/10/04 02:41:00;;;;;;;;;;;;;;;;;;6348612;28;20398;-86
2023/10/04 02:44:02;;;;;;;;;;;;;;;;;;6329706;28;19976;-88
2023/10/04 02:47:06;;;;;;;;;;;;;;;;;;6348233;28;19916;-86
2023/10/04 02:50:09;;;;;;;;;;;;;;;;;;6347920;28;19908;-86
2023/10/04 02:53:13;;;;;;;;;;;;;;;;;;6347883;28;19908;-86
2023/10/04 02:56:14;;;;;;;;;;;;;;;;;;6347705;28;20378;-88
2023/10/04 02:59:16;;;;;;;;;;;;;;;;;;6330325;28;19911;-87
2023/10/04 03:02:17;;;;;;;;;;;;;;;;;;6329366;28;19908;-87
2023/10/04 03:05:20;;;;;;;;;;;;;;;;;;6347723;28;19991;-87
2023/10/04 03:08:20;;;;;;;;;;;;;;;;;;6329488;28;19912;-87
2023/10/04 03:11:20;;;;;;;;;;;;;;;;;;6347615;28;19911;-87
2023/10/04 03:14:24;;;;;;;;;;;;;;;;;;6349325;27;20011;-87
2023/10/04 03:17:25;;;;;;;;;;;;;;;;;;6352455;28;20002;-86
2023/10/04 03:20:28;;;;;;;;;;;;;;;;;;6353100;28;19908;-87
2023/10/04 03:23:33;;;;;;;;;;;;;;;;;;6352635;28;19912;-87
2023/10/04 03:26:33;;;;;;;;;;;;;;;;;;6352681;28;19951;-81
2023/10/04 03:29:34;;;;;;;;;;;;;;;;;;6333799;28;19956;-80
2023/10/04 03:32:35;;;;;;;;;;;;;;;;;;6352168;28;19908;-80
2023/10/04 03:35:37;;;;;;;;;;;;;;;;;;6352146;28;20319;-80
2023/10/04 03:38:39;;;;;;;;;;;;;;;;;;6333760;28;19961;-80
2023/10/04 03:41:42;;;;;;;;;;;;;;;;;;6333667;28;19916;-81
2023/10/04 03:44:42;;;;;;;;;;;;;;;;;;6351901;28;19908;-80
2023/10/04 03:47:42;;;;;;;;;;;;;;;;;;6351771;28;19915;-81
2023/10/04 03:50:42;;;;;;;;;;;;;;;;;;6333384;28;19938;-81
2023/10/04 03:53:42;;;;;;;;;;;;;;;;;;6351711;28;19908;-80
2023/10/04 03:56:42;;;;;;;;;;;;;;;;;;6351401;28;19943;-80
2023/10/04 03:59:44;;;;;;;;;;;;;;;;;;6333174;28;20003;-80
2023/10/04 04:02:44;;;;;;;;;;;;;;;;;;6333207;28;19961;-81
2023/10/04 04:05:45;;;;;;;;;;;;;;;;;;6333096;28;19912;-80
2023/10/04 04:08:46;;;;;;;;;;;;;;;;;;6351266;28;19907;-80
2023/10/04 04:11:47;;;;;;;;;;;;;;;;;;6332785;28;19914;-81
2023/10/04 04:14:48;;;;;;;;;;;;;;;;;;6333905;28;20310;-81
2023/10/04 04:17:48;;;;;;;;;;;;;;;;;;6351311;28;19911;-81
2023/10/04 04:20:48;;;;;;;;;;;;;;;;;;6333060;28;19915;-81
2023/10/04 04:23:49;;;;;;;;;;;;;;;;;;6351496;28;19911;-81
2023/10/04 04:26:49;;;;;;;;;;;;;;;;;;6350851;28;19908;-81
2023/10/04 04:29:52;;;;;;;;;;;;;;;;;;6332466;28;19911;-81
2023/10/04 04:32:52;;;;;;;;;;;;;;;;;;6351012;28;19908;-81
2023/10/04 04:35:53;;;;;;;;;;;;;;;;;;6332312;28;19907;-80
2023/10/04 04:38:53;;;;;;;;;;;;;;;;;;6350734;28;19918;-82
2023/10/04 04:41:55;;;;;;;;;;;;;;;;;;6332595;28;19957;-81
2023/10/04 04:44:56;;;;;;;;;;;;;;;;;;6332222;28;19908;-80
2023/10/04 04:47:57;;;;;;;;;;;;;;;;;;6350352;28;19908;-81
2023/10/04 04:50:58;;;;;;;;;;;;;;;;;;6332094;28;19914;-80
2023/10/04 04:53:58;;;;;;;;;;;;;;;;;;6331947;28;19908;-81
2023/10/04 04:56:58;;;;;;;;;;;;;;;;;;6331454;28;19919;-81
2023/10/04 04:59:58;;;;;;;;;;;;;;;;;;6331703;28;19908;-80
2023/10/04 05:03:00;;;;;;;;;;;;;;;;;;6350045;28;19923;-81
2023/10/04 05:06:00;;;;;;;;;;;;;;;;;;6331923;28;19908;-81
2023/10/04 05:09:00;;;;;;;;;;;;;;;;;;6331590;28;19976;-80
2023/10/04 05:12:01;;;;;;;;;;;;;;;;;;6349827;28;20357;-80
2023/10/04 05:15:01;;;;;;;;;;;;;;;;;;6350302;28;19957;-80
2023/10/04 05:18:05;;;;;;;;;;;;;;;;;;6331334;28;19918;-80
2023/10/04 05:21:05;;;;;;;;;;;;;;;;;;6331632;28;20283;-80
2023/10/04 05:24:06;;;;;;;;;;;;;;;;;;6350173;28;19908;-80
2023/10/04 05:27:07;;;;;;;;;;;;;;;;;;6349532;28;20018;-79
2023/10/04 05:30:07;;;;;;;;;;;;;;;;;;6331163;28;19908;-80
2023/10/04 05:33:08;;;;;;;;;;;;;;;;;;6349475;28;20438;-81
2023/10/04 05:36:08;;;;;;;;;;;;;;;;;;6349009;28;19908;-80
2023/10/04 05:39:11;;;;;;;;;;;;;;;;;;6349059;28;20282;-81
2023/10/04 05:42:11;;;;;;;;;;;;;;;;;;6349480;28;19941;-81
2023/10/04 05:45:11;;;;;;;;;;;;;;;;;;6349174;28;19939;-81
2023/10/04 05:48:12;;;;;;;;;;;;;;;;;;6349978;28;20002;-80
2023/10/04 05:51:12;;;;;;;;;;;;;;;;;;6349368;28;19908;-79
2023/10/04 05:54:12;;;;;;;;;;;;;;;;;;6330630;28;19937;-79
2023/10/04 05:57:14;;;;;;;;;;;;;;;;;;6330184;28;19920;-79
2023/10/04 06:00:22;;;;;;;;;;;;;;;;;;6330609;28;19915;-78
2023/10/04 06:03:22;;;;;;;;;;;;;;;;;;6348744;28;19914;-79
2023/10/04 06:06:23;;;;;;;;;;;;;;;;;;6330467;28;19908;-80
2023/10/04 06:09:32;;;;;;;;;;;;;;;;;;6348648;28;20444;-79
2023/10/04 06:12:32;;;;;;;;;;;;;;;;;;6348466;28;19912;-80
2023/10/04 06:15:34;;;;;;;;;;;;;;;;;;6330291;28;19954;-80
2023/10/04 06:18:34;;;;;;;;;;;;;;;;;;6348467;28;19911;-80
2023/10/04 06:21:34;;;;;;;;;;;;;;;;;;6348851;28;20362;-79
2023/10/04 06:24:34;;;;;;;;;;;;;;;;;;6348671;28;19931;-80
2023/10/04 06:27:35;;;;;;;;;;;;;;;;;;6348251;28;19912;-80
2023/10/04 06:30:35;;;;;;;;;;;;;;;;;;6330248;28;19908;-80
2023/10/04 06:33:35;;;;;;;;;;;;;;;;;;6348266;28;19960;-80
2023/10/04 06:36:35;;;;;;;;;;;;;;;;;;6348060;28;19908;-80
2023/10/04 06:39:35;;;;;;;;;;;;;;;;;;6348078;28;19912;-81
2023/10/04 06:42:35;;;;;;;;;;;;;;;;;;6348054;28;19942;-80
2023/10/04 06:45:35;;;;;;;;;;;;;;;;;;6329691;28;20008;-81
2023/10/04 06:48:36;;;;;;;;;;;;;;;;;;6349183;28;19915;-80
2023/10/04 06:51:36;;;;;;;;;;;;;;;;;;6335149;28;19907;-79
2023/10/04 06:54:36;;;;;;;;;;;;;;;;;;6335672;28;19930;-79
2023/10/04 06:57:36;;;;;;;;;;;;;;;;;;6335015;28;20378;-80
2023/10/04 07:00:37;;;;;;;;;;;;;;;;;;6334884;28;19914;-80
2023/10/04 07:03:37;;;;;;;;;;;;;;;;;;6335143;28;19961;-81
2023/10/04 07:06:37;;;;;;;;;;;;;;;;;;6334751;28;19915;-80
2023/10/04 07:09:38;;;;;;;;;;;;;;;;;;6334670;28;19908;-79
2023/10/04 07:12:40;;;;;;;;;;;;;;;;;;6334605;28;19938;-80
2023/10/04 07:15:41;;;;;;;;;;;;;;;;;;6334383;28;19912;-80
2023/10/04 07:18:42;;;;;;;;;;;;;;;;;;6353351;28;19912;-80
2023/10/04 07:21:42;;;;;;;;;;;;;;;;;;6334380;28;19915;-80
2023/10/04 07:24:42;;;;;;;;;;;;;;;;;;6352658;28;20369;-80
2023/10/04 07:27:43;;;;;;;;;;;;;;;;;;6334038;28;19953;-80
2023/10/04 07:30:44;;;;;;;;;;;;;;;;;;6352796;28;19987;-80
2023/10/04 07:33:44;;;;;;;;;;;;;;;;;;6352503;28;20400;-81
2023/10/04 07:36:45;;;;;;;;;;;;;;;;;;6352904;28;19907;-80
2023/10/04 07:39:45;;;;;;;;;;;;;;;;;;6352121;28;19912;-80
2023/10/04 07:42:45;;;;;;;;;;;;;;;;;;6351763;28;19915;-79
2023/10/04 07:45:45;;;;;;;;;;;;;;;;;;6333447;28;19908;-79
2023/10/04 07:48:45;;;;;;;;;;;;;;;;;;6333697;28;19975;-79
2023/10/04 07:51:45;;;;;;;;;;;;;;;;;;6351766;28;19973;-80
2023/10/04 07:54:45;;;;;;;;;;;;;;;;;;6351887;28;19931;-79
2023/10/04 07:57:46;;;;;;;;;;;;;;;;;;6333283;28;19996;-80
2023/10/04 08:00:46;;;;;;;;;;;;;;;;;;6351335;28;20392;-80
2023/10/04 08:03:47;;;;;;;;;;;;;;;;;;6351771;28;20330;-80
2023/10/04 08:06:52;;;;;;;;;;;;;;;;;;6351880;28;20341;-79
2023/10/04 08:09:52;;;;;;;;;;;;;;;;;;6352005;28;19953;-79
2023/10/04 08:12:53;;;;;;;;;;;;;;;;;;6351505;28;20382;-80
2023/10/04 08:15:53;;;;;;;;;;;;;;;;;;6351446;28;20270;-79
2023/10/04 08:18:55;;;;;;;;;;;;;;;;;;6333022;28;19957;-80
2023/10/04 08:21:55;;;;;;;;;;;;;;;;;;6351267;28;20112;-80
2023/10/04 08:24:56;;;;;;;;;;;;;;;;;;6333013;28;19908;-80
2023/10/04 08:27:56;;;;;;;;;;;;;;;;;;6351079;28;19908;-80
2023/10/04 08:30:56;;;;;;;;;;;;;;;;;;6351108;28;19928;-82
2023/10/04 08:33:57;;;;;;;;;;;;;;;;;;6333074;28;19915;-81
2023/10/04 08:36:57;;;;;;;;;;;;;;;;;;6350917;28;19908;-81
2023/10/04 08:39:57;;;;;;;;;;;;;;;;;;6332687;28;19908;-81
2023/10/04 08:42:58;;;;;;;;;;;;;;;;;;6332598;28;19915;-81
2023/10/04 08:45:58;;;;;;;;;;;;;;;;;;6350765;28;20323;-81
2023/10/04 08:48:58;;;;;;;;;;;;;;;;;;6350552;28;19918;-80
2023/10/04 08:51:59;;;;;;;;;;;;;;;;;;6351205;28;19915;-80
2023/10/04 08:55:05;;;;;;;;;;;;;;;;;;6332023;28;20030;-80
2023/10/04 08:58:05;;;;;;;;;;;;;;;;;;6349986;28;20431;-80
2023/10/04 09:01:06;;;;;;;;;;;;;;;;;;6350277;28;19915;-80
2023/10/04 09:04:06;;;;;;;;;;;;;;;;;;6350248;28;20478;-80
2023/10/04 09:07:08;;;;;;;;;;;;;;;;;;6350882;28;19917;-80
2023/10/04 09:10:08;;;;;;;;;;;;;;;;;;6350389;28;19908;-80
2023/10/04 09:13:09;;;;;;;;;;;;;;;;;;6331050;28;19915;-80
2023/10/04 09:16:09;;;;;;;;;;;;;;;;;;6350034;28;20346;-81
2023/10/04 09:19:13;;;;;;;;;;;;;;;;;;6350953;28;20003;-87
2023/10/04 09:22:17;;;;;;;;;;;;;;;;;;6350956;28;19995;-87
2023/10/04 09:25:17;;;;;;;;;;;;;;;;;;6350459;28;20262;-88
2023/10/04 09:28:18;;;;;;;;;;;;;;;;;;6331825;28;19962;-86
2023/10/04 09:31:19;;;;;;;;;;;;;;;;;;6350754;28;19907;-87
2023/10/04 09:34:19;;;;;;;;;;;;;;;;;;6350146;28;19908;-88
2023/10/04 09:37:20;;;;;;;;;;;;;;;;;;6331614;28;19912;-86
2023/10/04 09:40:23;;;;;;;;;;;;;;;;;;6350016;28;19911;-87
2023/10/04 09:43:25;;;;;;;;;;;;;;;;;;6331583;28;20016;-87
2023/10/04 09:46:25;;;;;;;;;;;;;;;;;;6349631;28;20402;-87
2023/10/04 09:49:25;;;;;;;;;;;;;;;;;;6331006;28;19908;-87
2023/10/04 09:52:26;;;;;;;;;;;;;;;;;;6349766;28;19929;-87
2023/10/04 09:55:27;;;;;;;;;;;;;;;;;;6349354;28;19908;-87
2023/10/04 09:58:28;;;;;;;;;;;;;;;;;;6349383;28;19912;-87
2023/10/04 10:01:30;;;;;;;;;;;;;;;;;;6330366;28;21687;-87
2023/10/04 10:04:31;;;;;;;;;;;;;;;;;;6349365;28;19992;-87
2023/10/04 10:07:32;;;;;;;;;;;;;;;;;;6330882;28;20281;-87
2023/10/04 10:10:37;;;;;;;;;;;;;;;;;;6330918;28;19908;-87
2023/10/04 10:13:37;;;;;;;;;;;;;;;;;;6349427;28;19943;-87
2023/10/04 10:16:37;;;;;;;;;;;;;;;;;;6330595;28;20269;-88
2023/10/04 10:19:37;;;;;;;;;;;;;;;;;;6349148;28;19912;-86
2023/10/04 10:22:37;;;;;;;;;;;;;;;;;;6330101;28;19908;-88
2023/10/04 10:25:39;;;;;;;;;;;;;;;;;;6348631;28;19907;-86
2023/10/04 10:28:39;;;;;;;;;;;;;;;;;;6330111;28;19908;-80
2023/10/04 10:31:39;;;;;;;;;;;;;;;;;;6348205;28;20307;-80
2023/10/04 10:34:40;;;;;;;;;;;;;;;;;;6348898;28;19908;-80
2023/10/04 10:37:40;;;;;;;;;;;;;;;;;;6348389;28;19972;-79
2023/10/04 10:40:41;;;;;;;;;;;;;;;;;;6348012;28;19947;-80
2023/10/04 10:43:41;;;;;;;;;;;;;;;;;;6330034;28;19911;-80
2023/10/04 10:46:41;;;;;;;;;;;;;;;;;;6329615;28;20266;-80
2023/10/04 10:49:41;;;;;;;;;;;;;;;;;;6348616;28;19919;-80
2023/10/04 10:52:43;;;;;;;;;;;;;;;;;;6348297;28;19908;-80
2023/10/04 10:55:43;;;;;;;;;;;;;;;;;;6348056;28;19965;-80
2023/10/04 10:58:43;;;;;;;;;;;;;;;;;;6348568;28;19912;-80
2023/10/04 11:01:43;;;;;;;;;;;;;;;;;;6348164;28;19907;-80
2023/10/04 11:04:44;;;;;;;;;;;;;;;;;;6329677;28;19908;-79
2023/10/04 11:07:44;;;;;;;;;;;;;;;;;;6347848;28;19908;-80
2023/10/04 11:10:44;;;;;;;;;;;;;;;;;;6329429;28;19908;-80
2023/10/04 11:13:44;;;;;;;;;;;;;;;;;;6329753;28;19979;-80
2023/10/04 11:16:45;;;;;;;;;;;;;;;;;;6329817;28;20324;-79
2023/10/04 11:19:45;;;;;;;;;;;;;;;;;;6347702;28;20266;-80
2023/10/04 11:22:45;;;;;;;;;;;;;;;;;;6348481;28;19908;-80
2023/10/04 11:25:45;;;;;;;;;;;;;;;;;;6348134;28;19939;-80
2023/10/04 11:28:47;;;;;;;;;;;;;;;;;;6347567;28;19988;-79
2023/10/04 11:31:47;;;;;;;;;;;;;;;;;;6329342;28;20354;-80
2023/10/04 11:34:48;;;;;;;;;;;;;;;;;;6330199;28;19908;-79
2023/10/04 11:37:48;;;;;;;;;;;;;;;;;;6352230;28;19919;-80
2023/10/04 11:40:49;;;;;;;;;;;;;;;;;;6334040;28;19914;-80
2023/10/04 11:43:53;;;;;;;;;;;;;;;;;;6352178;28;19908;-80
2023/10/04 11:46:53;;;;;;;;;;;;;;;;;;6352745;28;19908;-80
2023/10/04 11:49:53;;;;;;;;;;;;;;;;;;6333693;28;19916;-80
2023/10/04 11:52:56;;;;;;;;;;;;;;;;;;6333716;28;19915;-80
2023/10/04 11:55:56;;;;;;;;;;;;;;;;;;6333051;28;19920;-80
2023/10/04 11:58:56;;;;;;;;;;;;;;;;;;6352124;28;20419;-79
2023/10/04 12:01:56;;;;;;;;;;;;;;;;;;6351669;28;19908;-80
2023/10/04 12:04:58;;;;;;;;;;;;;;;;;;6333184;28;19961;-80
2023/10/04 12:07:59;;;;;;;;;;;;;;;;;;6352723;28;19957;-80
2023/10/04 12:11:01;;;;;;;;;;;;;;;;;;6333027;28;19908;-80
2023/10/04 12:14:01;;;;;;;;;;;;;;;;;;6332612;28;19949;-79
2023/10/04 12:17:04;;;;;;;;;;;;;;;;;;6332817;28;20384;-80
2023/10/04 12:20:05;;;;;;;;;;;;;;;;;;6351721;28;19908;-80
2023/10/04 12:23:06;;;;;;;;;;;;;;;;;;6350994;28;20403;-79
2023/10/04 12:26:06;;;;;;;;;;;;;;;;;;6332776;28;19934;-80
2023/10/04 12:29:07;;;;;;;;;;;;;;;;;;6332670;28;19908;-80
2023/10/04 12:32:07;;;;;;;;;;;;;;;;;;6332818;28;19908;-80
2023/10/04 12:35:07;;;;;;;;;;;;;;;;;;6332722;28;19908;-79
2023/10/04 12:38:08;;;;;;;;;;;;;;;;;;6350820;28;19912;-80
2023/10/04 12:41:08;;;;;;;;;;;;;;;;;;6351224;28;19907;-80
2023/10/04 12:44:08;;;;;;;;;;;;;;;;;;6332428;28;19908;-79
2023/10/04 12:47:08;;;;;;;;;;;;;;;;;;6331367;28;19924;-87
2023/10/04 12:50:09;;;;;;;;;;;;;;;;;;6350659;28;19908;-87
2023/10/04 12:53:09;;;;;;;;;;;;;;;;;;6332319;28;19908;-88
2023/10/04 12:56:11;;;;;;;;;;;;;;;;;;6332170;28;19927;-87
2023/10/04 12:59:11;;;;;;;;;;;;;;;;;;6332172;28;20262;-87
2023/10/04 13:02:12;;;;;;;;;;;;;;;;;;6350609;28;19945;-87
2023/10/04 13:05:14;;;;;;;;;;;;;;;;;;6350111;28;20289;-88
2023/10/04 13:08:20;;;;;;;;;;;;;;;;;;6350167;28;19935;-87
2023/10/04 13:11:21;;;;;;;;;;;;;;;;;;6350459;28;19915;-87
2023/10/04 13:14:21;;;;;;;;;;;;;;;;;;6332096;28;20327;-88
2023/10/04 13:17:21;;;;;;;;;;;;;;;;;;6331796;28;19922;-87
2023/10/04 13:20:25;;;;;;;;;;;;;;;;;;6350177;28;20372;-87
2023/10/04 13:23:28;;;;;;;;;;;;;;;;;;6331472;28;20315;-88
2023/10/04 13:26:28;;;;;;;;;;;;;;;;;;6331310;28;19973;-87
2023/10/04 13:29:30;;;;;;;;;;;;;;;;;;6350000;28;20262;-87
2023/10/04 13:32:31;;;;;;;;;;;;;;;;;;6349535;28;20370;-88
2023/10/04 13:35:32;;;;;;;;;;;;;;;;;;6349569;28;20067;-88
2023/10/04 13:38:34;;;;;;;;;;;;;;;;;;6331362;28;19966;-88
2023/10/04 13:41:34;;;;;;;;;;;;;;;;;;6331015;28;19915;-87
2023/10/04 13:44:34;;;;;;;;;;;;;;;;;;6331069;28;19908;-88
2023/10/04 13:47:35;;;;;;;;;;;;;;;;;;6330906;28;19908;-88
2023/10/04 13:50:37;;;;;;;;;;;;;;;;;;6349403;28;19937;-88
2023/10/04 13:53:37;;;;;;;;;;;;;;;;;;6349365;28;19914;-88
2023/10/04 13:56:37;;;;;;;;;;;;;;;;;;6330820;28;19963;-81
2023/10/04 13:59:38;;;;;;;;;;;;;;;;;;6348290;28;19912;-81
2023/10/04 14:02:39;;;;;;;;;;;;;;;;;;6348914;28;19908;-81
2023/10/04 14:05:39;;;;;;;;;;;;;;;;;;6330525;28;20000;-81
2023/10/04 14:08:39;;;;;;;;;;;;;;;;;;6349353;28;20349;-81
2023/10/04 14:11:42;;;;;;;;;;;;;;;;;;6348688;28;19994;-80
2023/10/04 14:14:43;;;;;;;;;;;;;;;;;;6349311;28;20399;-81
2023/10/04 14:17:43;;;;;;;;;;;;;;;;;;6348674;28;19919;-81
2023/10/04 14:20:43;;;;;;;;;;;;;;;;;;6348781;28;20365;-80
2023/10/04 14:23:45;;;;;;;;;;;;;;;;;;6348961;28;19907;-81
2023/10/04 14:26:45;;;;;;;;;;;;;;;;;;6348490;28;19915;-81
2023/10/04 14:29:45;;;;;;;;;;;;;;;;;;6329825;28;19907;-80
2023/10/04 14:32:49;;;;;;;;;;;;;;;;;;6330395;28;19975;-80
2023/10/04 14:35:51;;;;;;;;;;;;;;;;;;6330246;28;19915;-80
2023/10/04 14:38:54;;;;;;;;;;;;;;;;;;6348010;28;19911;-80
2023/10/04 14:41:54;;;;;;;;;;;;;;;;;;6348597;28;20315;-80
2023/10/04 14:44:55;;;;;;;;;;;;;;;;;;6329678;28;19957;-81
2023/10/04 14:47:55;;;;;;;;;;;;;;;;;;6347658;28;20112;-80
2023/10/04 14:50:56;;;;;;;;;;;;;;;;;;6347811;28;19915;-81
2023/10/04 14:53:56;;;;;;;;;;;;;;;;;;6348379;28;19915;-80
2023/10/04 14:56:56;;;;;;;;;;;;;;;;;;6347851;28;19920;-80
2023/10/04 14:59:56;;;;;;;;;;;;;;;;;;6348344;28;19918;-80
2023/10/04 15:02:56;;;;;;;;;;;;;;;;;;6329615;28;19908;-81
2023/10/04 15:05:56;;;;;;;;;;;;;;;;;;6348561;28;19915;-80
2023/10/04 15:08:57;;;;;;;;;;;;;;;;;;6348090;28;19915;-88
2023/10/04 15:11:57;;;;;;;;;;;;;;;;;;6334006;28;19915;-88
2023/10/04 15:14:57;;;;;;;;;;;;;;;;;;6334454;28;19951;-87
2023/10/04 15:17:59;;;;;;;;;;;;;;;;;;6334663;28;19912;-88
2023/10/04 15:20:59;;;;;;;;;;;;;;;;;;6353160;28;19939;-88
2023/10/04 15:24:02;;;;;;;;;;;;;;;;;;6353076;28;19908;-88
2023/10/04 15:27:03;;;;;;;;;;;;;;;;;;6352439;28;20377;-89
2023/10/04 15:30:03;;;;;;;;;;;;;;;;;;6353137;28;19908;-88
2023/10/04 15:33:04;;;;;;;;;;;;;;;;;;6352661;28;19908;-88
2023/10/04 15:36:04;;;;;;;;;;;;;;;;;;6352796;28;20019;-86
2023/10/04 15:39:13;;;;;;;;;;;;;;;;;;6352413;28;19912;-88
2023/10/04 15:42:15;;;;;;;;;;;;;;;;;;6352284;28;19925;-89
2023/10/04 15:45:16;;;;;;;;;;;;;;;;;;6334008;28;20381;-88
2023/10/04 15:48:16;;;;;;;;;;;;;;;;;;6352120;28;20346;-88
2023/10/04 15:51:17;;;;;;;;;;;;;;;;;;6352425;28;20004;-88
2023/10/04 15:54:17;;;;;;;;;;;;;;;;;;6352773;28;19911;-87
2023/10/04 15:57:17;;;;;;;;;;;;;;;;;;6351778;28;19920;-88
2023/10/04 16:00:32;;;;;;;;;;;;;;;;;;6351854;28;20002;-88
2023/10/04 16:03:32;;;;;;;;;;;;;;;;;;6351704;28;20378;-88
2023/10/04 16:06:33;;;;;;;;;;;;;;;;;;6352617;28;19915;-88
2023/10/04 16:09:33;;;;;;;;;;;;;;;;;;6333654;28;19908;-88
2023/10/04 16:12:33;;;;;;;;;;;;;;;;;;6333492;28;19908;-88
2023/10/04 16:15:35;;;;;;;;;;;;;;;;;;6351582;28;20373;-88
2023/10/04 16:18:35;;;;;;;;;;;;;;;;;;6351752;28;19919;-87
2023/10/04 16:21:36;;;;;;;;;;;;;;;;;;6332724;28;19908;-88
2023/10/04 16:24:36;;;;;;;;;;;;;;;;;;6351538;28;19915;-88
2023/10/04 16:27:36;;;;;;;;;;;;;;;;;;6332764;28;19962;-88
2023/10/04 16:30:36;;;;;;;;;;;;;;;;;;6351074;28;19991;-88
2023/10/04 16:33:37;;;;;;;;;;;;;;;;;;6332737;28;20357;-88
2023/10/04 16:36:37;;;;;;;;;;;;;;;;;;6350864;28;19908;-88
2023/10/04 16:39:37;;;;;;;;;;;;;;;;;;6350703;28;20331;-89
2023/10/04 16:42:37;;;;;;;;;;;;;;;;;;6350787;28;19958;-88
2023/10/04 16:45:38;;;;;;;;;;;;;;;;;;6332966;28;20314;-88
2023/10/04 16:48:39;;;;;;;;;;;;;;;;;;6350475;28;20013;-88
2023/10/04 16:51:39;;;;;;;;;;;;;;;;;;6332192;28;20388;-88
2023/10/04 16:54:39;;;;;;;;;;;;;;;;;;6350898;28;19937;-88
2023/10/04 16:57:40;;;;;;;;;;;;;;;;;;6349939;28;19923;-88
2023/10/04 17:00:41;;;;;;;;;;;;;;;;;;6331908;28;20358;-88
2023/10/04 17:03:41;;;;;;;;;;;;;;;;;;6350617;28;19911;-89
2023/10/04 17:06:41;;;;;;;;;;;;;;;;;;6331976;28;20006;-89
2023/10/04 17:09:41;;;;;;;;;;;;;;;;;;6331759;28;19907;-89
2023/10/04 17:12:41;;;;;;;;;;;;;;;;;;6331777;28;19915;-89
2023/10/04 17:15:42;;;;;;;;;;;;;;;;;;6350046;28;20267;-89
2023/10/04 17:18:42;;;;;;;;;;;;;;;;;;6349840;28;19986;-89
2023/10/04 17:21:42;;;;;;;;;;;;;;;;;;6349621;28;19915;-89
2023/10/04 17:24:42;;;;;;;;;;;;;;;;;;6331284;28;20335;-89
2023/10/04 17:27:43;;;;;;;;;;;;;;;;;;6349635;28;20345;-90
2023/10/04 17:30:44;;;;;;;;;;;;;;;;;;6350084;28;20016;-89
2023/10/04 17:33:44;;;;;;;;;;;;;;;;;;6348991;28;19933;-88
2023/10/04 17:36:44;;;;;;;;;;;;;;;;;;6349254;28;20323;-89
2023/10/04 17:39:44;;;;;;;;;;;;;;;;;;6331132;28;19912;-89
2023/10/04 17:42:44;;;;;;;;;;;;;;;;;;6331635;28;19907;-89
2023/10/04 17:45:45;;;;;;;;;;;;;;;;;;6349484;28;19943;-89
2023/10/04 17:48:46;;;;;;;;;;;;;;;;;;6348850;28;20502;-89
2023/10/04 17:51:46;;;;;;;;;;;;;;;;;;6329482;28;19957;-89
2023/10/04 17:54:46;;;;;;;;;;;;;;;;;;6349552;28;19907;-89
2023/10/04 17:57:46;;;;;;;;;;;;;;;;;;6330299;28;19919;-89
2023/10/04 18:00:46;;;;;;;;;;;;;;;;;;6348785;28;19922;-89
2023/10/04 18:03:46;;;;;;;;;;;;;;;;;;6348677;28;20003;-88
2023/10/04 18:06:47;;;;;;;;;;;;;;;;;;6349087;28;20045;-89
2023/10/04 18:09:47;;;;;;;;;;;;;;;;;;6330456;28;20020;-89
2023/10/04 18:12:47;;;;;;;;;;;;;;;;;;6348544;28;20389;-89
2023/10/04 18:15:48;;;;;;;;;;;;;;;;;;6330803;28;20251;-89
2023/10/04 18:18:48;;;;;;;;;;;;;;;;;;6348396;28;20044;-87
2023/10/04 18:21:48;;;;;;;;;;;;;;;;;;6330452;28;19915;-88
2023/10/04 18:24:48;;;;;;;;;;;;;;;;;;6330357;28;19934;-87
2023/10/04 18:27:49;;;;;;;;;;;;;;;;;;6329957;28;19911;-87
2023/10/04 18:30:49;;;;;;;;;;;;;;;;;;6330013;28;19911;-87
2023/10/04 18:33:49;;;;;;;;;;;;;;;;;;6348195;28;19957;-88
2023/10/04 18:36:49;;;;;;;;;;;;;;;;;;6348255;28;19908;-79
2023/10/04 18:39:50;;;;;;;;;;;;;;;;;;6347846;28;19977;-79
2023/10/04 18:42:51;;;;;;;;;;;;;;;;;;6349146;28;19908;-78
2023/10/04 18:45:51;;;;;;;;;;;;;;;;;;6330251;28;19957;-80
2023/10/04 18:48:51;;;;;;;;;;;;;;;;;;6329262;28;20281;-78
2023/10/04 18:51:52;;;;;;;;;;;;;;;;;;6329510;28;19912;-78
2023/10/04 18:54:52;;;;;;;;;;;;;;;;;;6329442;28;20297;-78
2023/10/04 18:57:53;;;;;;;;;;;;;;;;;;6347654;28;19920;-78
2023/10/04 19:00:53;;;;;;;;;;;;;;;;;;6347717;28;19951;-78
2023/10/04 19:03:56;;;;;;;;;;;;;;;;;;6347647;28;20285;-78
2023/10/04 19:06:57;;;;;;;;;;;;;;;;;;6329312;28;19915;-78
2023/10/04 19:09:58;;;;;;;;;;;;;;;;;;6347564;28;20361;-78
2023/10/04 19:12:58;;;;;;;;;;;;;;;;;;6329362;28;19915;-78
2023/10/04 19:15:59;;;;;;;;;;;;;;;;;;6329374;28;19915;-79
2023/10/04 19:18:59;;;;;;;;;;;;;;;;;;6347496;28;20404;-78
2023/10/04 19:21:59;;;;;;;;;;;;;;;;;;6329344;28;19908;-79
2023/10/04 19:24:59;;;;;;;;;;;;;;;;;;6347491;28;19915;-79
2023/10/04 19:28:00;;;;;;;;;;;;;;;;;;6329153;28;19908;-79
2023/10/04 19:31:01;;;;;;;;;;;;;;;;;;6347218;28;19908;-79
2023/10/04 19:34:02;;;;;;;;;;;;;;;;;;6329025;28;19908;-79
2023/10/04 19:37:03;;;;;;;;;;;;;;;;;;6347346;28;19912;-79
2023/10/04 19:40:03;;;;;;;;;;;;;;;;;;6347302;28;19916;-79
2023/10/04 19:43:04;;;;;;;;;;;;;;;;;;6329059;28;19912;-79
2023/10/04 19:46:04;;;;;;;;;;;;;;;;;;6328959;28;19957;-79
2023/10/04 19:49:04;;;;;;;;;;;;;;;;;;6329285;28;20006;-78
2023/10/04 19:52:04;;;;;;;;;;;;;;;;;;6347104;28;19908;-79
2023/10/04 19:55:05;;;;;;;;;;;;;;;;;;6329035;28;19908;-78
2023/10/04 19:58:05;;;;;;;;;;;;;;;;;;6333007;28;19968;-79
2023/10/04 20:01:05;;;;;;;;;;;;;;;;;;6352911;28;19920;-79
2023/10/04 20:04:06;;;;;;;;;;;;;;;;;;6355172;28;19937;-79
2023/10/04 20:07:08;;;;;;;;;;;;;;;;;;6353393;28;19907;-79
2023/10/04 20:10:08;;;;;;;;;;;;;;;;;;6335487;28;19907;-79
2023/10/04 20:13:09;;;;;;;;;;;;;;;;;;6337024;28;19908;-78
2023/10/04 20:16:10;;;;;;;;;;;;;;;;;;6355322;28;19942;-78
2023/10/04 20:19:10;;;;;;;;;;;;;;;;;;6353693;28;19912;-79
2023/10/04 20:22:12;;;;;;;;;;;;;;;;;;6335216;28;19930;-78
2023/10/04 20:25:15;;;;;;;;;;;;;;;;;;6353817;28;19918;-78
2023/10/04 20:28:15;;;;;;;;;;;;;;;;;;6334844;28;19912;-78
2023/10/04 20:31:16;;;;;;;;;;;;;;;;;;6334971;28;20274;-78
2023/10/04 20:34:17;;;;;;;;;;;;;;;;;;6352656;28;20285;-79